sensor_id;sensor_type;location;lat;lon;timestamp;temperature;humidity
65203;HTU21D;51788;45.124;38.966;2022-07-10T00:00:10;24.47;74.14
65203;HTU21D;51788;45.124;38.966;2022-07-10T00:02:41;24.48;74.16
65203;HTU21D;51788;45.124;38.966;2022-07-10T00:05:08;24.46;74.31
65203;HTU21D;51788;45.124;38.966;2022-07-10T00:07:34;24.40;74.63
65203;HTU21D;51788;45.124;38.966;2022-07-10T00:10:01;24.40;74.89
65203;HTU21D;51788;45.124;38.966;2022-07-10T00:12:27;24.36;75.13
65203;HTU21D;51788;45.124;38.966;2022-07-10T00:14:53;24.34;75.36
65203;HTU21D;51788;45.124;38.966;2022-07-10T00:17:19;24.32;75.50
65203;HTU21D;51788;45.124;38.966;2022-07-10T00:19:45;24.31;75.70
65203;HTU21D;51788;45.124;38.966;2022-07-10T00:22:12;24.28;75.88
65203;HTU21D;51788;45.124;38.966;2022-07-10T00:24:38;24.27;76.08
65203;HTU21D;51788;45.124;38.966;2022-07-10T00:27:04;24.26;76.19
65203;HTU21D;51788;45.124;38.966;2022-07-10T00:29:30;24.28;76.38
65203;HTU21D;51788;45.124;38.966;2022-07-10T00:31:56;24.28;76.46
65203;HTU21D;51788;45.124;38.966;2022-07-10T00:34:22;24.29;76.60
65203;HTU21D;51788;45.124;38.966;2022-07-10T00:36:48;24.30;76.60
65203;HTU21D;51788;45.124;38.966;2022-07-10T00:39:14;24.31;76.63
65203;HTU21D;51788;45.124;38.966;2022-07-10T00:41:40;24.29;76.73
65203;HTU21D;51788;45.124;38.966;2022-07-10T00:44:06;24.28;76.97
65203;HTU21D;51788;45.124;38.966;2022-07-10T00:46:32;24.25;77.08
65203;HTU21D;51788;45.124;38.966;2022-07-10T00:48:59;24.21;77.26
65203;HTU21D;51788;45.124;38.966;2022-07-10T00:51:26;24.19;77.46
65203;HTU21D;51788;45.124;38.966;2022-07-10T00:53:52;24.19;77.49
65203;HTU21D;51788;45.124;38.966;2022-07-10T00:56:22;24.18;77.57
65203;HTU21D;51788;45.124;38.966;2022-07-10T00:58:49;24.18;77.53
65203;HTU21D;51788;45.124;38.966;2022-07-10T01:01:16;24.20;77.71
65203;HTU21D;51788;45.124;38.966;2022-07-10T01:03:43;24.21;77.84
65203;HTU21D;51788;45.124;38.966;2022-07-10T01:06:13;24.20;77.92
65203;HTU21D;51788;45.124;38.966;2022-07-10T01:08:40;24.20;77.97
65203;HTU21D;51788;45.124;38.966;2022-07-10T01:11:07;24.19;78.12
65203;HTU21D;51788;45.124;38.966;2022-07-10T01:13:33;24.19;78.17
65203;HTU21D;51788;45.124;38.966;2022-07-10T01:15:59;24.17;78.39
65203;HTU21D;51788;45.124;38.966;2022-07-10T01:18:25;24.16;78.48
65203;HTU21D;51788;45.124;38.966;2022-07-10T01:20:53;24.16;78.66
65203;HTU21D;51788;45.124;38.966;2022-07-10T01:23:20;24.14;78.70
65203;HTU21D;51788;45.124;38.966;2022-07-10T01:25:47;24.13;78.79
65203;HTU21D;51788;45.124;38.966;2022-07-10T01:28:14;24.11;78.86
65203;HTU21D;51788;45.124;38.966;2022-07-10T01:30:41;24.11;78.98
65203;HTU21D;51788;45.124;38.966;2022-07-10T01:33:07;24.10;79.03
65203;HTU21D;51788;45.124;38.966;2022-07-10T01:35:33;24.08;79.14
65203;HTU21D;51788;45.124;38.966;2022-07-10T01:37:59;24.06;79.26
65203;HTU21D;51788;45.124;38.966;2022-07-10T01:40:25;24.05;79.33
65203;HTU21D;51788;45.124;38.966;2022-07-10T01:42:51;24.02;79.41
65203;HTU21D;51788;45.124;38.966;2022-07-10T01:45:17;24.02;79.59
65203;HTU21D;51788;45.124;38.966;2022-07-10T01:47:43;24.04;79.60
65203;HTU21D;51788;45.124;38.966;2022-07-10T01:50:10;24.08;79.60
65203;HTU21D;51788;45.124;38.966;2022-07-10T01:52:36;24.12;79.56
65203;HTU21D;51788;45.124;38.966;2022-07-10T01:55:03;24.16;79.54
65203;HTU21D;51788;45.124;38.966;2022-07-10T01:57:29;24.19;79.53
65203;HTU21D;51788;45.124;38.966;2022-07-10T01:59:55;24.19;79.56
65203;HTU21D;51788;45.124;38.966;2022-07-10T02:02:21;24.17;79.64
65203;HTU21D;51788;45.124;38.966;2022-07-10T02:04:47;24.18;79.70
65203;HTU21D;51788;45.124;38.966;2022-07-10T02:07:16;24.20;79.81
65203;HTU21D;51788;45.124;38.966;2022-07-10T02:09:43;24.24;79.68
65203;HTU21D;51788;45.124;38.966;2022-07-10T02:12:10;24.26;79.81
65203;HTU21D;51788;45.124;38.966;2022-07-10T02:14:37;24.26;79.86
65203;HTU21D;51788;45.124;38.966;2022-07-10T02:17:04;24.25;79.88
65203;HTU21D;51788;45.124;38.966;2022-07-10T02:19:30;24.25;79.85
65203;HTU21D;51788;45.124;38.966;2022-07-10T02:21:56;24.26;79.85
65203;HTU21D;51788;45.124;38.966;2022-07-10T02:24:22;24.27;79.80
65203;HTU21D;51788;45.124;38.966;2022-07-10T02:26:48;24.27;79.88
65203;HTU21D;51788;45.124;38.966;2022-07-10T02:29:15;24.26;79.95
65203;HTU21D;51788;45.124;38.966;2022-07-10T02:31:41;24.27;79.94
65203;HTU21D;51788;45.124;38.966;2022-07-10T02:34:11;24.25;80.13
65203;HTU21D;51788;45.124;38.966;2022-07-10T02:36:38;24.26;79.99
65203;HTU21D;51788;45.124;38.966;2022-07-10T02:39:07;24.28;80.04
65203;HTU21D;51788;45.124;38.966;2022-07-10T02:41:33;24.29;79.99
65203;HTU21D;51788;45.124;38.966;2022-07-10T02:44:00;24.30;80.05
65203;HTU21D;51788;45.124;38.966;2022-07-10T02:46:26;24.33;80.04
65203;HTU21D;51788;45.124;38.966;2022-07-10T02:48:52;24.36;80.04
65203;HTU21D;51788;45.124;38.966;2022-07-10T02:51:18;24.33;80.21
65203;HTU21D;51788;45.124;38.966;2022-07-10T02:53:44;24.31;80.20
65203;HTU21D;51788;45.124;38.966;2022-07-10T02:56:10;24.34;80.26
65203;HTU21D;51788;45.124;38.966;2022-07-10T02:58:37;24.38;80.32
65203;HTU21D;51788;45.124;38.966;2022-07-10T03:01:04;24.41;80.29
65203;HTU21D;51788;45.124;38.966;2022-07-10T03:03:30;24.43;80.25
65203;HTU21D;51788;45.124;38.966;2022-07-10T03:05:56;24.46;80.33
65203;HTU21D;51788;45.124;38.966;2022-07-10T03:08:22;24.42;80.46
65203;HTU21D;51788;45.124;38.966;2022-07-10T03:10:48;24.44;80.54
65203;HTU21D;51788;45.124;38.966;2022-07-10T03:13:14;24.46;80.58
65203;HTU21D;51788;45.124;38.966;2022-07-10T03:15:40;24.44;80.66
65203;HTU21D;51788;45.124;38.966;2022-07-10T03:18:05;24.43;80.78
65203;HTU21D;51788;45.124;38.966;2022-07-10T03:20:31;24.45;80.78
65203;HTU21D;51788;45.124;38.966;2022-07-10T03:22:57;24.47;80.79
65203;HTU21D;51788;45.124;38.966;2022-07-10T03:25:23;24.54;80.72
65203;HTU21D;51788;45.124;38.966;2022-07-10T03:27:49;24.50;80.87
65203;HTU21D;51788;45.124;38.966;2022-07-10T03:30:15;24.54;80.75
65203;HTU21D;51788;45.124;38.966;2022-07-10T03:32:41;24.62;80.60
65203;HTU21D;51788;45.124;38.966;2022-07-10T03:35:07;24.76;80.30
65203;HTU21D;51788;45.124;38.966;2022-07-10T03:37:33;24.92;79.78
65203;HTU21D;51788;45.124;38.966;2022-07-10T03:39:59;25.04;79.50
65203;HTU21D;51788;45.124;38.966;2022-07-10T03:42:25;25.16;79.24
65203;HTU21D;51788;45.124;38.966;2022-07-10T03:44:51;25.24;79.03
65203;HTU21D;51788;45.124;38.966;2022-07-10T03:47:17;25.35;78.89
65203;HTU21D;51788;45.124;38.966;2022-07-10T03:49:43;25.40;78.87
65203;HTU21D;51788;45.124;38.966;2022-07-10T03:52:09;25.58;78.53
65203;HTU21D;51788;45.124;38.966;2022-07-10T03:54:36;25.73;78.14
65203;HTU21D;51788;45.124;38.966;2022-07-10T03:57:02;25.86;77.80
65203;HTU21D;51788;45.124;38.966;2022-07-10T03:59:46;25.86;77.75
65203;HTU21D;51788;45.124;38.966;2022-07-10T04:02:12;25.84;77.81
65203;HTU21D;51788;45.124;38.966;2022-07-10T04:04:38;25.93;77.84
65203;HTU21D;51788;45.124;38.966;2022-07-10T04:07:04;26.05;77.60
65203;HTU21D;51788;45.124;38.966;2022-07-10T04:09:31;26.12;77.47
65203;HTU21D;51788;45.124;38.966;2022-07-10T04:11:58;26.25;77.16
65203;HTU21D;51788;45.124;38.966;2022-07-10T04:14:24;26.23;77.04
65203;HTU21D;51788;45.124;38.966;2022-07-10T04:16:50;26.20;77.24
65203;HTU21D;51788;45.124;38.966;2022-07-10T04:19:15;26.20;77.11
65203;HTU21D;51788;45.124;38.966;2022-07-10T04:21:42;26.21;77.06
65203;HTU21D;51788;45.124;38.966;2022-07-10T04:24:08;26.21;76.90
65203;HTU21D;51788;45.124;38.966;2022-07-10T04:26:34;26.25;76.72
65203;HTU21D;51788;45.124;38.966;2022-07-10T04:29:00;26.35;76.53
65203;HTU21D;51788;45.124;38.966;2022-07-10T04:31:26;26.43;76.19
65203;HTU21D;51788;45.124;38.966;2022-07-10T04:33:52;26.50;75.90
65203;HTU21D;51788;45.124;38.966;2022-07-10T04:36:18;26.53;75.75
65203;HTU21D;51788;45.124;38.966;2022-07-10T04:38:44;26.63;75.61
65203;HTU21D;51788;45.124;38.966;2022-07-10T04:41:10;26.77;75.13
65203;HTU21D;51788;45.124;38.966;2022-07-10T04:43:36;26.83;74.95
65203;HTU21D;51788;45.124;38.966;2022-07-10T04:46:02;26.82;74.87
65203;HTU21D;51788;45.124;38.966;2022-07-10T04:48:28;26.92;74.61
65203;HTU21D;51788;45.124;38.966;2022-07-10T04:50:54;26.96;74.28
65203;HTU21D;51788;45.124;38.966;2022-07-10T04:53:20;26.94;74.33
65203;HTU21D;51788;45.124;38.966;2022-07-10T04:55:46;26.96;74.25
65203;HTU21D;51788;45.124;38.966;2022-07-10T04:58:12;27.06;73.97
65203;HTU21D;51788;45.124;38.966;2022-07-10T05:00:38;27.07;73.96
65203;HTU21D;51788;45.124;38.966;2022-07-10T05:03:04;27.14;73.75
65203;HTU21D;51788;45.124;38.966;2022-07-10T05:05:30;27.23;73.60
65203;HTU21D;51788;45.124;38.966;2022-07-10T05:07:56;27.41;73.04
65203;HTU21D;51788;45.124;38.966;2022-07-10T05:10:22;27.52;72.76
65203;HTU21D;51788;45.124;38.966;2022-07-10T05:12:48;27.58;72.54
65203;HTU21D;51788;45.124;38.966;2022-07-10T05:15:14;27.59;72.45
65203;HTU21D;51788;45.124;38.966;2022-07-10T05:17:40;27.57;72.51
65203;HTU21D;51788;45.124;38.966;2022-07-10T05:20:06;27.64;72.38
65203;HTU21D;51788;45.124;38.966;2022-07-10T05:22:33;27.67;72.48
65203;HTU21D;51788;45.124;38.966;2022-07-10T05:24:59;27.80;72.09
65203;HTU21D;51788;45.124;38.966;2022-07-10T05:27:25;27.93;71.76
65203;HTU21D;51788;45.124;38.966;2022-07-10T05:29:51;27.98;71.45
65203;HTU21D;51788;45.124;38.966;2022-07-10T05:32:18;27.91;71.48
65203;HTU21D;51788;45.124;38.966;2022-07-10T05:34:44;27.99;71.18
65203;HTU21D;51788;45.124;38.966;2022-07-10T05:37:10;28.02;70.71
65203;HTU21D;51788;45.124;38.966;2022-07-10T05:39:36;27.98;70.62
65203;HTU21D;51788;45.124;38.966;2022-07-10T05:42:02;28.03;70.48
65203;HTU21D;51788;45.124;38.966;2022-07-10T05:44:28;28.15;70.29
65203;HTU21D;51788;45.124;38.966;2022-07-10T05:46:54;28.23;70.08
65203;HTU21D;51788;45.124;38.966;2022-07-10T05:49:20;28.25;69.90
65203;HTU21D;51788;45.124;38.966;2022-07-10T05:51:46;28.18;69.97
65203;HTU21D;51788;45.124;38.966;2022-07-10T05:54:12;28.15;69.90
65203;HTU21D;51788;45.124;38.966;2022-07-10T05:56:38;28.19;69.81
65203;HTU21D;51788;45.124;38.966;2022-07-10T05:59:04;28.31;69.42
65203;HTU21D;51788;45.124;38.966;2022-07-10T06:01:30;28.42;69.04
65203;HTU21D;51788;45.124;38.966;2022-07-10T06:03:56;28.47;68.66
65203;HTU21D;51788;45.124;38.966;2022-07-10T06:06:23;28.61;67.84
65203;HTU21D;51788;45.124;38.966;2022-07-10T06:08:49;28.54;67.49
65203;HTU21D;51788;45.124;38.966;2022-07-10T06:11:15;28.50;67.39
65203;HTU21D;51788;45.124;38.966;2022-07-10T06:13:41;28.57;67.08
65203;HTU21D;51788;45.124;38.966;2022-07-10T06:16:07;28.60;66.80
65203;HTU21D;51788;45.124;38.966;2022-07-10T06:18:33;28.65;66.80
65203;HTU21D;51788;45.124;38.966;2022-07-10T06:20:59;28.73;66.90
65203;HTU21D;51788;45.124;38.966;2022-07-10T06:23:25;28.82;66.77
65203;HTU21D;51788;45.124;38.966;2022-07-10T06:25:51;28.93;66.55
65203;HTU21D;51788;45.124;38.966;2022-07-10T06:28:18;28.93;66.59
65203;HTU21D;51788;45.124;38.966;2022-07-10T06:30:44;29.06;66.29
65203;HTU21D;51788;45.124;38.966;2022-07-10T06:33:12;29.01;66.20
65203;HTU21D;51788;45.124;38.966;2022-07-10T06:35:38;29.01;66.14
65203;HTU21D;51788;45.124;38.966;2022-07-10T06:38:04;29.11;65.82
65203;HTU21D;51788;45.124;38.966;2022-07-10T06:40:35;29.13;65.62
65203;HTU21D;51788;45.124;38.966;2022-07-10T06:43:01;29.08;65.55
65203;HTU21D;51788;45.124;38.966;2022-07-10T06:45:28;29.15;65.38
65203;HTU21D;51788;45.124;38.966;2022-07-10T06:47:54;29.20;64.66
65203;HTU21D;51788;45.124;38.966;2022-07-10T06:50:28;29.17;64.34
65203;HTU21D;51788;45.124;38.966;2022-07-10T06:52:58;29.29;63.84
65203;HTU21D;51788;45.124;38.966;2022-07-10T06:55:25;29.49;63.21
65203;HTU21D;51788;45.124;38.966;2022-07-10T06:57:51;29.60;62.95
65203;HTU21D;51788;45.124;38.966;2022-07-10T07:00:17;29.79;62.47
65203;HTU21D;51788;45.124;38.966;2022-07-10T07:02:43;29.79;62.44
65203;HTU21D;51788;45.124;38.966;2022-07-10T07:05:09;29.89;62.39
65203;HTU21D;51788;45.124;38.966;2022-07-10T07:07:36;29.94;62.21
65203;HTU21D;51788;45.124;38.966;2022-07-10T07:10:03;29.86;62.27
65203;HTU21D;51788;45.124;38.966;2022-07-10T07:12:29;29.79;62.10
65203;HTU21D;51788;45.124;38.966;2022-07-10T07:14:55;29.81;61.92
65203;HTU21D;51788;45.124;38.966;2022-07-10T07:17:21;29.86;61.40
65203;HTU21D;51788;45.124;38.966;2022-07-10T07:19:49;29.88;61.16
65203;HTU21D;51788;45.124;38.966;2022-07-10T07:22:33;29.92;61.27
65203;HTU21D;51788;45.124;38.966;2022-07-10T07:25:18;30.07;60.76
65203;HTU21D;51788;45.124;38.966;2022-07-10T07:27:44;30.26;60.08
65203;HTU21D;51788;45.124;38.966;2022-07-10T07:30:12;30.46;59.42
65203;HTU21D;51788;45.124;38.966;2022-07-10T07:32:42;30.55;58.70
65203;HTU21D;51788;45.124;38.966;2022-07-10T07:35:09;30.70;57.87
65203;HTU21D;51788;45.124;38.966;2022-07-10T07:37:46;30.72;57.26
65203;HTU21D;51788;45.124;38.966;2022-07-10T07:40:15;30.66;57.37
65203;HTU21D;51788;45.124;38.966;2022-07-10T07:42:41;30.63;57.54
65203;HTU21D;51788;45.124;38.966;2022-07-10T07:45:09;30.66;57.43
65203;HTU21D;51788;45.124;38.966;2022-07-10T07:47:50;30.74;57.47
65203;HTU21D;51788;45.124;38.966;2022-07-10T07:50:18;30.80;57.39
65203;HTU21D;51788;45.124;38.966;2022-07-10T07:52:45;30.76;57.70
65203;HTU21D;51788;45.124;38.966;2022-07-10T07:55:12;30.82;57.51
65203;HTU21D;51788;45.124;38.966;2022-07-10T07:57:40;30.79;57.41
65203;HTU21D;51788;45.124;38.966;2022-07-10T08:00:08;30.75;57.42
65203;HTU21D;51788;45.124;38.966;2022-07-10T08:02:40;30.75;57.19
65203;HTU21D;51788;45.124;38.966;2022-07-10T08:05:07;30.80;57.03
65203;HTU21D;51788;45.124;38.966;2022-07-10T08:07:35;30.84;56.67
65203;HTU21D;51788;45.124;38.966;2022-07-10T08:10:03;30.82;56.32
65203;HTU21D;51788;45.124;38.966;2022-07-10T08:12:29;30.89;56.26
65203;HTU21D;51788;45.124;38.966;2022-07-10T08:14:55;31.00;55.98
65203;HTU21D;51788;45.124;38.966;2022-07-10T08:17:21;31.11;55.49
65203;HTU21D;51788;45.124;38.966;2022-07-10T08:19:47;31.18;55.44
65203;HTU21D;51788;45.124;38.966;2022-07-10T08:22:13;31.19;55.10
65203;HTU21D;51788;45.124;38.966;2022-07-10T08:24:39;31.12;54.75
65203;HTU21D;51788;45.124;38.966;2022-07-10T08:27:05;31.08;54.28
65203;HTU21D;51788;45.124;38.966;2022-07-10T08:29:34;30.97;54.14
65203;HTU21D;51788;45.124;38.966;2022-07-10T08:32:00;30.96;54.04
65203;HTU21D;51788;45.124;38.966;2022-07-10T08:34:26;31.04;53.74
65203;HTU21D;51788;45.124;38.966;2022-07-10T08:36:53;31.12;53.24
65203;HTU21D;51788;45.124;38.966;2022-07-10T08:39:19;31.28;52.53
65203;HTU21D;51788;45.124;38.966;2022-07-10T08:41:48;31.51;52.09
65203;HTU21D;51788;45.124;38.966;2022-07-10T08:44:17;31.71;51.56
65203;HTU21D;51788;45.124;38.966;2022-07-10T08:46:44;31.87;51.17
65203;HTU21D;51788;45.124;38.966;2022-07-10T08:49:11;32.05;50.84
65203;HTU21D;51788;45.124;38.966;2022-07-10T08:51:41;32.20;50.69
65203;HTU21D;51788;45.124;38.966;2022-07-10T08:54:09;32.38;50.17
65203;HTU21D;51788;45.124;38.966;2022-07-10T08:56:35;32.47;49.96
65203;HTU21D;51788;45.124;38.966;2022-07-10T08:59:05;32.48;50.02
65203;HTU21D;51788;45.124;38.966;2022-07-10T09:01:33;32.52;50.14
65203;HTU21D;51788;45.124;38.966;2022-07-10T09:03:59;32.49;50.08
65203;HTU21D;51788;45.124;38.966;2022-07-10T09:06:27;32.45;49.74
65203;HTU21D;51788;45.124;38.966;2022-07-10T09:09:05;32.52;49.72
65203;HTU21D;51788;45.124;38.966;2022-07-10T09:11:32;32.57;49.49
65203;HTU21D;51788;45.124;38.966;2022-07-10T09:14:02;32.62;49.31
65203;HTU21D;51788;45.124;38.966;2022-07-10T09:16:33;32.57;49.46
65203;HTU21D;51788;45.124;38.966;2022-07-10T09:19:25;32.61;49.37
65203;HTU21D;51788;45.124;38.966;2022-07-10T09:22:06;32.54;49.39
65203;HTU21D;51788;45.124;38.966;2022-07-10T09:24:40;32.42;49.83
65203;HTU21D;51788;45.124;38.966;2022-07-10T09:27:07;32.44;49.63
65203;HTU21D;51788;45.124;38.966;2022-07-10T09:29:50;32.29;49.63
65203;HTU21D;51788;45.124;38.966;2022-07-10T09:32:20;32.24;49.74
65203;HTU21D;51788;45.124;38.966;2022-07-10T09:34:48;32.31;49.91
65203;HTU21D;51788;45.124;38.966;2022-07-10T09:37:25;32.34;49.84
65203;HTU21D;51788;45.124;38.966;2022-07-10T09:39:54;32.37;49.79
65203;HTU21D;51788;45.124;38.966;2022-07-10T09:42:28;32.52;49.49
65203;HTU21D;51788;45.124;38.966;2022-07-10T09:47:36;32.83;49.13
65203;HTU21D;51788;45.124;38.966;2022-07-10T09:50:03;32.89;49.03
65203;HTU21D;51788;45.124;38.966;2022-07-10T09:52:29;32.83;48.98
65203;HTU21D;51788;45.124;38.966;2022-07-10T09:54:59;32.84;48.84
65203;HTU21D;51788;45.124;38.966;2022-07-10T09:57:28;32.94;48.84
65203;HTU21D;51788;45.124;38.966;2022-07-10T09:59:56;32.85;48.83
65203;HTU21D;51788;45.124;38.966;2022-07-10T10:02:22;32.90;48.63
65203;HTU21D;51788;45.124;38.966;2022-07-10T10:04:50;33.11;48.57
65203;HTU21D;51788;45.124;38.966;2022-07-10T10:07:18;33.30;48.17
65203;HTU21D;51788;45.124;38.966;2022-07-10T10:09:56;33.42;48.00
65203;HTU21D;51788;45.124;38.966;2022-07-10T10:12:46;33.45;48.46
65203;HTU21D;51788;45.124;38.966;2022-07-10T10:15:14;33.46;48.59
65203;HTU21D;51788;45.124;38.966;2022-07-10T10:17:41;33.43;48.66
65203;HTU21D;51788;45.124;38.966;2022-07-10T10:20:08;33.59;48.42
65203;HTU21D;51788;45.124;38.966;2022-07-10T10:22:55;33.77;48.23
65203;HTU21D;51788;45.124;38.966;2022-07-10T10:25:23;33.91;47.83
65203;HTU21D;51788;45.124;38.966;2022-07-10T10:27:50;34.09;47.18
65203;HTU21D;51788;45.124;38.966;2022-07-10T10:30:16;34.24;46.96
65203;HTU21D;51788;45.124;38.966;2022-07-10T10:32:43;34.29;46.86
65203;HTU21D;51788;45.124;38.966;2022-07-10T10:35:09;34.33;46.63
65203;HTU21D;51788;45.124;38.966;2022-07-10T10:37:39;34.26;46.54
65203;HTU21D;51788;45.124;38.966;2022-07-10T10:40:31;34.25;46.54
65203;HTU21D;51788;45.124;38.966;2022-07-10T10:42:58;34.40;46.42
65203;HTU21D;51788;45.124;38.966;2022-07-10T10:45:41;34.53;46.08
65203;HTU21D;51788;45.124;38.966;2022-07-10T10:48:09;34.25;46.33
65203;HTU21D;51788;45.124;38.966;2022-07-10T10:53:28;33.89;46.66
65203;HTU21D;51788;45.124;38.966;2022-07-10T10:58:43;33.45;47.41
65203;HTU21D;51788;45.124;38.966;2022-07-10T11:06:40;33.83;46.51
65203;HTU21D;51788;45.124;38.966;2022-07-10T11:09:29;33.79;46.09
65203;HTU21D;51788;45.124;38.966;2022-07-10T11:12:06;33.75;46.31
65203;HTU21D;51788;45.124;38.966;2022-07-10T11:14:34;33.77;46.41
65203;HTU21D;51788;45.124;38.966;2022-07-10T11:17:02;33.68;46.54
65203;HTU21D;51788;45.124;38.966;2022-07-10T11:19:29;33.51;46.73
65203;HTU21D;51788;45.124;38.966;2022-07-10T11:24:51;33.50;47.09
65203;HTU21D;51788;45.124;38.966;2022-07-10T11:30:18;33.52;47.83
65203;HTU21D;51788;45.124;38.966;2022-07-10T11:32:44;33.61;47.77
65203;HTU21D;51788;45.124;38.966;2022-07-10T11:35:13;33.68;47.86
65203;HTU21D;51788;45.124;38.966;2022-07-10T11:37:52;33.70;47.45
65203;HTU21D;51788;45.124;38.966;2022-07-10T11:40:19;33.74;47.61
65203;HTU21D;51788;45.124;38.966;2022-07-10T11:42:49;33.83;47.42
65203;HTU21D;51788;45.124;38.966;2022-07-10T11:47:52;33.90;47.77
65203;HTU21D;51788;45.124;38.966;2022-07-10T11:50:18;33.92;47.67
65203;HTU21D;51788;45.124;38.966;2022-07-10T11:52:46;33.86;47.66
65203;HTU21D;51788;45.124;38.966;2022-07-10T11:55:16;33.80;47.85
65203;HTU21D;51788;45.124;38.966;2022-07-10T11:57:42;33.76;48.09
65203;HTU21D;51788;45.124;38.966;2022-07-10T12:00:27;33.68;48.31
65203;HTU21D;51788;45.124;38.966;2022-07-10T12:02:54;33.53;48.66
65203;HTU21D;51788;45.124;38.966;2022-07-10T12:05:33;33.45;48.85
65203;HTU21D;51788;45.124;38.966;2022-07-10T12:07:59;33.36;49.03
65203;HTU21D;51788;45.124;38.966;2022-07-10T12:10:29;33.26;49.41
65203;HTU21D;51788;45.124;38.966;2022-07-10T12:13:08;33.15;49.97
65203;HTU21D;51788;45.124;38.966;2022-07-10T12:15:41;33.18;50.16
65203;HTU21D;51788;45.124;38.966;2022-07-10T12:18:20;33.14;50.71
65203;HTU21D;51788;45.124;38.966;2022-07-10T12:20:47;33.12;50.56
65203;HTU21D;51788;45.124;38.966;2022-07-10T12:23:18;33.07;50.72
65203;HTU21D;51788;45.124;38.966;2022-07-10T12:25:46;33.06;50.75
65203;HTU21D;51788;45.124;38.966;2022-07-10T12:28:15;33.02;50.72
65203;HTU21D;51788;45.124;38.966;2022-07-10T12:30:46;32.92;50.91
65203;HTU21D;51788;45.124;38.966;2022-07-10T12:33:14;32.84;51.03
65203;HTU21D;51788;45.124;38.966;2022-07-10T12:38:20;32.70;51.02
65203;HTU21D;51788;45.124;38.966;2022-07-10T12:40:46;32.66;51.36
65203;HTU21D;51788;45.124;38.966;2022-07-10T12:43:12;32.68;51.29
65203;HTU21D;51788;45.124;38.966;2022-07-10T12:45:38;32.71;51.38
65203;HTU21D;51788;45.124;38.966;2022-07-10T12:48:05;32.76;51.14
65203;HTU21D;51788;45.124;38.966;2022-07-10T12:50:33;32.74;50.69
65203;HTU21D;51788;45.124;38.966;2022-07-10T12:53:11;32.57;50.82
65203;HTU21D;51788;45.124;38.966;2022-07-10T12:55:39;32.42;51.06
65203;HTU21D;51788;45.124;38.966;2022-07-10T12:58:10;32.45;50.95
65203;HTU21D;51788;45.124;38.966;2022-07-10T13:00:45;32.42;51.03
65203;HTU21D;51788;45.124;38.966;2022-07-10T13:03:18;32.23;51.60
65203;HTU21D;51788;45.124;38.966;2022-07-10T13:05:45;32.27;51.51
65203;HTU21D;51788;45.124;38.966;2022-07-10T13:08:19;32.32;50.94
65203;HTU21D;51788;45.124;38.966;2022-07-10T13:10:55;32.41;50.27
65203;HTU21D;51788;45.124;38.966;2022-07-10T13:13:22;32.46;49.97
65203;HTU21D;51788;45.124;38.966;2022-07-10T13:15:48;32.58;49.63
65203;HTU21D;51788;45.124;38.966;2022-07-10T13:18:24;32.77;49.23
65203;HTU21D;51788;45.124;38.966;2022-07-10T13:20:54;32.93;49.36
65203;HTU21D;51788;45.124;38.966;2022-07-10T13:23:21;33.04;50.16
65203;HTU21D;51788;45.124;38.966;2022-07-10T13:25:55;33.15;50.95
65203;HTU21D;51788;45.124;38.966;2022-07-10T13:28:21;33.20;50.91
65203;HTU21D;51788;45.124;38.966;2022-07-10T13:30:47;33.27;51.09
65203;HTU21D;51788;45.124;38.966;2022-07-10T13:33:14;33.35;51.01
65203;HTU21D;51788;45.124;38.966;2022-07-10T13:35:40;33.38;50.76
65203;HTU21D;51788;45.124;38.966;2022-07-10T13:38:07;33.35;51.02
65203;HTU21D;51788;45.124;38.966;2022-07-10T13:40:35;33.30;50.91
65203;HTU21D;51788;45.124;38.966;2022-07-10T13:43:02;33.22;50.91
65203;HTU21D;51788;45.124;38.966;2022-07-10T13:45:29;33.06;50.92
65203;HTU21D;51788;45.124;38.966;2022-07-10T13:47:59;32.87;51.27
65203;HTU21D;51788;45.124;38.966;2022-07-10T13:50:25;32.83;51.67
65203;HTU21D;51788;45.124;38.966;2022-07-10T13:52:51;32.86;51.50
65203;HTU21D;51788;45.124;38.966;2022-07-10T13:55:17;32.86;51.73
65203;HTU21D;51788;45.124;38.966;2022-07-10T13:57:43;32.81;51.64
65203;HTU21D;51788;45.124;38.966;2022-07-10T14:00:10;32.73;51.77
65203;HTU21D;51788;45.124;38.966;2022-07-10T14:02:39;32.76;51.58
65203;HTU21D;51788;45.124;38.966;2022-07-10T14:05:05;32.76;51.59
65203;HTU21D;51788;45.124;38.966;2022-07-10T14:07:33;32.73;51.43
65203;HTU21D;51788;45.124;38.966;2022-07-10T14:09:59;32.60;51.65
65203;HTU21D;51788;45.124;38.966;2022-07-10T14:12:27;32.56;51.85
65203;HTU21D;51788;45.124;38.966;2022-07-10T14:14:53;32.55;51.99
65203;HTU21D;51788;45.124;38.966;2022-07-10T14:17:19;32.49;52.39
65203;HTU21D;51788;45.124;38.966;2022-07-10T14:19:45;32.39;52.27
65203;HTU21D;51788;45.124;38.966;2022-07-10T14:22:11;32.23;52.60
65203;HTU21D;51788;45.124;38.966;2022-07-10T14:24:37;32.05;53.09
65203;HTU21D;51788;45.124;38.966;2022-07-10T14:27:03;31.99;53.42
65203;HTU21D;51788;45.124;38.966;2022-07-10T14:29:29;32.00;53.27
65203;HTU21D;51788;45.124;38.966;2022-07-10T14:31:55;31.99;53.36
65203;HTU21D;51788;45.124;38.966;2022-07-10T14:34:23;32.04;53.30
65203;HTU21D;51788;45.124;38.966;2022-07-10T14:36:50;32.08;53.30
65203;HTU21D;51788;45.124;38.966;2022-07-10T14:39:17;32.09;53.17
65203;HTU21D;51788;45.124;38.966;2022-07-10T14:41:43;32.09;53.14
65203;HTU21D;51788;45.124;38.966;2022-07-10T14:44:09;32.05;53.14
65203;HTU21D;51788;45.124;38.966;2022-07-10T14:46:34;32.00;53.16
65203;HTU21D;51788;45.124;38.966;2022-07-10T14:49:01;31.93;53.08
65203;HTU21D;51788;45.124;38.966;2022-07-10T14:51:27;31.82;53.16
65203;HTU21D;51788;45.124;38.966;2022-07-10T14:53:54;31.74;53.31
65203;HTU21D;51788;45.124;38.966;2022-07-10T14:56:22;31.68;53.46
65203;HTU21D;51788;45.124;38.966;2022-07-10T14:58:49;31.61;53.62
65203;HTU21D;51788;45.124;38.966;2022-07-10T15:01:15;31.55;54.21
65203;HTU21D;51788;45.124;38.966;2022-07-10T15:03:42;31.48;54.86
65203;HTU21D;51788;45.124;38.966;2022-07-10T15:06:08;31.36;57.06
65203;HTU21D;51788;45.124;38.966;2022-07-10T15:08:34;30.13;59.54
65203;HTU21D;51788;45.124;38.966;2022-07-10T15:11:01;28.12;61.12
65203;HTU21D;51788;45.124;38.966;2022-07-10T15:13:28;26.38;65.05
65203;HTU21D;51788;45.124;38.966;2022-07-10T18:03:49;24.23;78.93
65203;HTU21D;51788;45.124;38.966;2022-07-10T18:06:15;24.21;79.74
65203;HTU21D;51788;45.124;38.966;2022-07-10T18:08:41;24.18;80.30
65203;HTU21D;51788;45.124;38.966;2022-07-10T18:11:10;24.05;80.68
65203;HTU21D;51788;45.124;38.966;2022-07-10T18:13:36;23.84;81.24
65203;HTU21D;51788;45.124;38.966;2022-07-10T18:16:03;23.74;81.79
65203;HTU21D;51788;45.124;38.966;2022-07-10T18:18:42;23.67;82.25